SBOSBO GCM / MWCR
Speedbird OnlineSpeedbird Online GCM / MWCR

Owen Roberts International Airport
08:47 24.6°C

Location Georgetown, Cayman Islands
Latitude: 19.292800903299998
Longitude: -81.3576965332
Web Wikipedia
Altitude 2 Meter / 8 Feet
Distance 7,760 KM / 4,822 Miles
from London.
Time Zone UTC -5 hours (America/Cayman)
Codes IATA: GCM
ICAO: MWCR
Currency £1 equals KYD 1.03
Runways
RunwayLength (m)Surface
082140Asphalt
262140Asphalt
Radio
TypeDescriptionFrequency
A/DGRAND CAYMAN APP120.2
ATISATIS132.35
CNTRKINGSTON CON128.1
GNDGND121.9
TWRTWR118
Live ATC
METAR MWCR 311300Z 11004KT 9999 BKN016 SCT030 25/22 Q1018
TAF TAF MWCR 311100Z 3112/0112 08012KT 9999 FEW018
Weather As Of 31 Jan 2023 08:47
Description Broken clouds
Wind 7 km/h from East (110°)
Cloud Cover 75%
Precipitation Rain: none, Snow: none
Sunrise 07:00
Sunset 18:17
Rotations During the last 90 days there were
52 flights from NAS
45 flights to NAS



Support Speedbird Online

© 2017-2023 Speedbird Online